• Join FlightAware (Why Join?)
  • Login
  • US Flag 
07:11PM EDT


 

Airport Tracker/Info


-or-


 

Live Flight TrackerFlight Track Log ✈ SKW4764 ✈ 31-Oct-2013 ✈ KSLC - KMSO

Flight Track Log - Related Links

Times and Time Zones

All times are in EDT time to prevent confusion due to time zone crossing. See the SKW4764 flight status page for this flight to view local times or setup timezone preferences in your user account.

Time Position Orientation Groundspeed Altitude Reporting Facility
EDT Latitude Longitude Course Direction KTS MPH feet Rate Location/Type
05:21PM 40.8067 -111.9794 41° Northeast 169 194 4,800  Level Salt Lake Center
05:21PM 40.8247 -111.9789 North 170 196 5,500 1,800 Climbing Salt Lake Center
05:21PM 40.8394 -111.9822 350° North 185 213 5,900 1,920 Climbing Salt Lake Center
05:22PM 40.8844 -111.9878 355° North 216 249 7,500 2,160 Climbing Salt Lake Center
05:22PM 40.9036 -111.9917 351° North 240 276 8,100 2,940 Climbing Salt Lake Center
05:23PM 40.9569 -111.9969 356° North 259 298 10,500 3,240 Climbing Salt Lake Center
05:23PM 40.9742 -111.9989 355° North 255 293 11,400 2,700 Climbing Salt Lake Center
05:24PM 41.1667 -112.0960 13° North  Level Estimated
05:24PM 41.0275 -112.0067 354° North 252 290 13,300  Level Salt Lake Center
05:25PM 41.2612 -112.1258 17° North  Level Estimated
05:25PM 41.0494 -112.0103 353° North 255 293 13,900  Level Salt Lake Center
05:25PM 41.1031 -111.9950 12° North 291 335 15,300 1,920 Climbing Salt Lake Center
05:26PM 41.3341 -112.0402 41° Northeast  Level FlightAware Approximate
05:26PM 41.1603 -111.9047 50° Northeast 316 364 17,300  Level Salt Lake Center
05:27PM 41.2242 -111.8264 43° Northeast 309 356 19,100 1,860 Climbing Salt Lake Center
05:28PM 41.2964 -111.7747 28° Northeast 291 335 21,200 1,620 Climbing Salt Lake Center
05:29PM 41.3675 -111.7233 28° Northeast 290 334 22,500 900 Climbing Salt Lake Center
05:30PM 41.4639 -111.6814 18° North 304 350 23,100 1,140 Climbing Salt Lake Center
05:31PM 41.5461 -111.6475 17° North 308 354 24,900 900 Climbing Salt Lake Center
05:32PM 41.6258 -111.6158 17° North 301 346 25,000  Climbing Salt Lake Center
05:33PM 41.7050 -111.5850 16° North 298 343 25,000 240 Level Salt Lake Center
05:35PM 41.7828 -111.5525 17° North 293 337 25,600 480 Climbing Salt Lake Center
05:36PM 41.8614 -111.5333 10° North 289 333 26,000 180 Climbing Salt Lake Center
05:37PM 41.9467 -111.5172 North 307 353 26,000  Level Salt Lake Center
05:38PM 42.0383 -111.5622 340° North 289 333 26,000 180 Level Salt Lake Center
05:39PM 42.1136 -111.5969 341° North 288 331 26,400 480 Climbing Salt Lake Center
05:40PM 42.1914 -111.6336 341° North 294 338 27,000 480 Climbing Salt Lake Center
05:41PM 42.2714 -111.6711 341° North 304 350 27,400 780 Climbing Salt Lake Center
05:42PM 42.3481 -111.7089 340° North 295 339 28,600 780 Climbing Salt Lake Center
05:43PM 42.4244 -111.7467 340° North 293 337 29,000 420 Climbing Salt Lake Center
05:44PM 42.5044 -111.7822 342° North 300 345 29,500 540 Climbing Salt Lake Center
05:45PM 42.6006 -111.8286 340° North 306 352 30,200 480 Climbing Salt Lake Center
05:46PM 42.6803 -111.8683 340° North 307 353 30,600 420 Climbing Salt Lake Center
05:47PM 42.7614 -111.9072 341° North 312 359 31,100 480 Climbing Salt Lake Center
05:48PM 42.8386 -111.9442 341° North 310 357 31,600 420 Climbing Salt Lake Center
05:49PM 42.9278 -111.9894 340° North 307 353 32,000 180 Climbing Salt Lake Center
05:50PM 43.0067 -112.0261 341° North 311 358 32,000  Level Salt Lake Center
05:51PM 43.1019 -112.0731 340° North 322 371 32,000  Level Salt Lake Center
05:52PM 43.1836 -112.1136 340° North 326 375 32,000  Level Salt Lake Center
05:53PM 43.2669 -112.1558 340° North 333 383 32,000  Level Salt Lake Center
05:54PM 43.3664 -112.2036 341° North 338 389 32,000  Level Salt Lake Center
05:55PM 43.4519 -112.2464 340° North 342 394 32,000  Level Salt Lake Center
05:56PM 43.5511 -112.2967 340° North 340 391 32,000  Level Salt Lake Center
05:57PM 43.6375 -112.3392 340° North 343 395 32,000  Level Salt Lake Center
05:58PM 43.7378 -112.3894 340° North 342 394 32,000  Level Salt Lake Center
05:59PM 43.8231 -112.4314 340° North 341 392 32,000  Level Salt Lake Center
06:00PM 43.9075 -112.4758 339° North 340 391 32,000  Level Salt Lake Center
06:01PM 44.0058 -112.5267 340° North 337 388 32,000  Level Salt Lake Center
06:02PM 44.0911 -112.5689 340° North 339 390 32,000  Level Salt Lake Center
06:03PM 44.1864 -112.6178 340° North 328 377 32,000  Level Salt Lake Center
06:04PM 44.2697 -112.6592 340° North 329 379 32,000  Level Salt Lake Center
06:05PM 44.3514 -112.7014 340° North 326 375 32,000  Level Salt Lake Center
06:06PM 44.4458 -112.7506 340° North 325 374 32,000  Level Salt Lake Center
06:07PM 44.5278 -112.7944 339° North 327 376 32,000  Level Salt Lake Center
06:08PM 44.6203 -112.8419 340° North 319 367 32,000  Level Salt Lake Center
06:09PM 44.7000 -112.8839 339° North 319 367 32,000  Level Salt Lake Center
06:10PM 44.7803 -112.9258 340° North 321 369 32,000  Level Salt Lake Center
06:11PM 44.8736 -112.9753 339° North 321 369 32,000  Level Salt Lake Center
06:12PM 44.9547 -113.0169 340° North 323 372 32,000  Level Salt Lake Center
06:14PM 45.0478 -113.0728 337° Northwest 324 373 32,000  Level Salt Lake Center
06:15PM 45.1203 -113.1206 335° Northwest 306 352 32,000  Level Salt Lake Center
06:16PM 45.1950 -113.1667 336° Northwest 305 351 32,000  Level Salt Lake Center
06:17PM 45.2825 -113.2225 336° Northwest 309 356 32,000  Level Salt Lake Center
06:18PM 45.3642 -113.2744 336° Northwest 312 359 32,000  Level Salt Lake Center
06:19PM 45.4456 -113.3269 336° Northwest 313 360 32,000  Level Salt Lake Center
06:20PM 45.5278 -113.3794 336° Northwest 317 365 32,000  Level Salt Lake Center
06:21PM 45.6086 -113.4317 336° Northwest 312 359 32,000  Level Salt Lake Center
06:22PM 45.6906 -113.4831 336° Northwest 315 362 32,000  Level Salt Lake Center
06:23PM 45.7686 -113.5353 335° Northwest 306 352 32,000 -780 Level Salt Lake Center
06:24PM 45.8494 -113.5878 336° Northwest 311 358 30,500 -2,220 Descending Salt Lake Center
06:25PM 45.9308 -113.6386 337° Northwest 328 377 27,500 -2,940 Descending Salt Lake Center
06:26PM 46.0108 -113.6908 336° Northwest 319 367 24,500 -2,940 Descending Salt Lake Center
06:27PM 46.0875 -113.7414 335° Northwest 306 352 21,500 -3,180 Descending Salt Lake Center
06:28PM 46.1758 -113.7969 336° Northwest 296 341 18,000 -3,120 Descending Salt Lake Center
06:29PM 46.2503 -113.8486 334° Northwest 296 341 15,200 -1,500 Descending Salt Lake Center
06:30PM 46.3239 -113.8983 335° Northwest 270 311 15,000 -240 Descending Salt Lake Center
06:31PM 46.3908 -113.9403 337° Northwest 262 302 14,800 -1,140 Descending Salt Lake Center
06:32PM 46.4558 -113.9836 335° Northwest 259 298 12,700 -2,100 Descending Salt Lake Center
06:33PM 46.5333 -114.0078 348° North 267 307 10,500 -1,320 Descending Salt Lake Center
06:34PM 46.6014 -114.0183 354° North 244 281 10,000 -720 Descending Salt Lake Center
06:35PM 46.6567 -114.0183 360° North 199 229 9,100 -960 Descending Salt Lake Center
06:36PM 46.7139 -114.0303 352° North 193 222 8,100 -960 Descending Salt Lake Center
06:37PM 46.7622 -114.0239 North 176 203 7,200 -1,200 Descending Salt Lake Center
06:38PM 46.8111 -114.0114 10° North 178 205 5,700 -1,200 Descending Salt Lake Center
06:39PM 46.8636 -114.0144 358° North 174 200 4,800 -1,020 Descending Salt Lake Center
06:40PM 46.8931 -114.0517 319° Northwest 143 165 3,700 -840 Descending Salt Lake Center
06:41PM 46.9172 -114.0944 310° West 135 155 3,200 -540 Descending Salt Lake Center